Time;durP1;ratioP1;P1;durP2;ratioP2;P2;SDS_P1;SDS_P2;PMS_P1;PMS_P2;Temp;Humidity;BMP_temperature;BMP_pressure;BME280_temperature;BME280_humidity;BME280_pressure;Samples;Min_cycle;Max_cycle;Signal;HPM_P1;HPM_P2
2022/03/21 00:02:21;;;;;;;56.60;36.83;;;5.80;91.60;;;;;;5087750;28;20089;-84
2022/03/21 00:04:47;;;;;;;57.50;36.95;;;5.70;91.60;;;;;;5059697;28;20354;-82
2022/03/21 00:07:13;;;;;;;52.00;34.88;;;5.70;91.70;;;;;;5077089;28;20021;-84
2022/03/21 00:09:39;;;;;;;61.17;37.92;;;5.70;91.80;;;;;;5075721;28;20044;-82
2022/03/21 00:12:05;;;;;;;56.17;36.05;;;5.70;91.90;;;;;;5075258;28;20089;-83
2022/03/21 00:14:31;;;;;;;54.63;37.42;;;5.70;91.90;;;;;;5069955;28;20036;-83
2022/03/21 00:16:58;;;;;;;58.00;35.88;;;5.70;92.00;;;;;;5045964;28;20017;-82
2022/03/21 00:19:24;;;;;;;56.35;36.78;;;5.70;92.10;;;;;;5055174;28;20048;-83
2022/03/21 00:21:49;;;;;;;53.40;36.10;;;5.60;92.10;;;;;;5039967;28;20136;-84
2022/03/21 00:24:15;;;;;;;55.38;36.17;;;5.60;92.20;;;;;;5052599;28;20032;-83
2022/03/21 00:26:40;;;;;;;52.60;35.15;;;5.60;92.30;;;;;;5069790;28;20056;-83
2022/03/21 00:29:08;;;;;;;55.22;35.38;;;5.60;92.40;;;;;;5053036;28;20037;-83
2022/03/21 00:31:35;;;;;;;58.17;37.78;;;5.50;92.40;;;;;;5069386;28;20473;-83
2022/03/21 00:34:01;;;;;;;53.97;36.38;;;5.50;92.60;;;;;;5054277;28;20025;-83
2022/03/21 00:36:27;;;;;;;53.90;34.63;;;5.50;92.60;;;;;;5052515;28;20027;-83
2022/03/21 00:38:53;;;;;;;56.45;36.15;;;5.50;92.70;;;;;;5053345;28;20071;-82
2022/03/21 00:41:21;;;;;;;56.03;37.55;;;5.50;92.80;;;;;;5058884;28;20493;-83
2022/03/21 00:43:47;;;;;;;59.03;36.28;;;5.40;92.90;;;;;;5056540;28;20032;-83
2022/03/21 00:46:13;;;;;;;59.65;38.03;;;5.40;92.90;;;;;;5075142;28;20100;-83
2022/03/21 00:48:39;;;;;;;57.35;36.78;;;5.40;93.10;;;;;;5078476;28;20115;-84
2022/03/21 00:51:04;;;;;;;53.80;36.03;;;5.40;93.20;;;;;;5072434;28;20150;-83
2022/03/21 00:53:30;;;;;;;55.25;36.10;;;5.30;93.20;;;;;;5055441;28;20536;-83
2022/03/21 00:55:56;;;;;;;56.78;36.47;;;5.30;93.30;;;;;;5072480;28;20116;-83
2022/03/21 00:58:21;;;;;;;57.92;36.72;;;5.30;93.40;;;;;;5055464;28;20481;-82
2022/03/21 01:00:47;;;;;;;52.78;35.40;;;5.20;93.40;;;;;;5054698;28;20032;-83
2022/03/21 01:03:13;;;;;;;53.03;35.47;;;5.30;93.40;;;;;;5055400;28;20036;-83
2022/03/21 01:05:39;;;;;;;56.47;37.47;;;5.20;93.50;;;;;;5071869;28;20496;-82
2022/03/21 01:08:05;;;;;;;51.25;34.72;;;5.20;93.60;;;;;;5073337;28;20027;-83
2022/03/21 01:10:31;;;;;;;57.22;36.03;;;5.20;93.70;;;;;;5071957;28;20070;-84
2022/03/21 01:12:58;;;;;;;54.22;36.22;;;5.20;93.80;;;;;;5072982;28;20103;-83
2022/03/21 01:15:26;;;;;;;57.63;36.17;;;5.10;93.80;;;;;;5055277;28;20469;-83
2022/03/21 01:17:53;;;;;;;56.90;36.83;;;5.10;93.90;;;;;;5072873;28;20500;-83
2022/03/21 01:20:21;;;;;;;51.78;34.13;;;5.10;93.80;;;;;;5055070;28;20029;-82
2022/03/21 01:22:47;;;;;;;54.30;36.30;;;5.00;94.10;;;;;;5054848;28;20032;-83
2022/03/21 01:25:14;;;;;;;59.03;37.97;;;5.00;94.00;;;;;;5072013;28;20358;-83
2022/03/21 01:27:41;;;;;;;52.25;35.97;;;5.00;94.10;;;;;;5071992;28;20028;-82
2022/03/21 01:30:09;;;;;;;60.03;37.55;;;5.00;94.10;;;;;;5074885;28;20040;-82
2022/03/21 01:32:35;;;;;;;50.65;34.08;;;5.00;94.20;;;;;;5057324;28;20037;-82
2022/03/21 01:35:02;;;;;;;54.50;35.53;;;5.00;94.30;;;;;;5055007;28;20081;-83
2022/03/21 01:37:28;;;;;;;53.55;36.10;;;4.90;94.20;;;;;;5054920;28;20020;-84
2022/03/21 01:39:54;;;;;;;57.05;35.28;;;4.90;94.40;;;;;;5055022;28;20040;-83
2022/03/21 01:42:19;;;;;;;54.88;36.13;;;4.90;94.50;;;;;;5071648;28;20068;-83
2022/03/21 01:44:50;;;;;;;53.95;34.85;;;4.90;94.50;;;;;;5054800;28;20025;-82
2022/03/21 01:47:16;;;;;;;56.08;35.80;;;4.90;94.60;;;;;;5055033;28;20058;-82
2022/03/21 01:49:41;;;;;;;53.92;34.75;;;4.80;94.60;;;;;;5054481;28;20134;-83
2022/03/21 01:52:07;;;;;;;51.90;34.38;;;4.90;94.70;;;;;;5054821;28;20032;-83
2022/03/21 01:57:17;;;;;;;50.13;33.10;;;4.80;94.80;;;;;;5071942;28;20090;-82
2022/03/21 01:59:44;;;;;;;54.03;34.97;;;4.80;94.90;;;;;;5072525;28;20020;-83
2022/03/21 02:02:09;;;;;;;53.03;35.00;;;4.70;94.90;;;;;;5072030;28;20062;-82
2022/03/21 02:04:35;;;;;;;53.95;36.15;;;4.70;95.00;;;;;;5075196;28;20036;-83
2022/03/21 02:07:01;;;;;;;51.30;34.42;;;4.70;95.00;;;;;;5058712;28;20028;-83
2022/03/21 02:09:29;;;;;;;58.15;36.60;;;4.70;95.10;;;;;;5058766;28;20372;-82
2022/03/21 02:11:56;;;;;;;50.85;32.80;;;4.70;95.20;;;;;;5058219;28;20059;-82
2022/03/21 02:14:22;;;;;;;56.38;34.42;;;4.60;95.30;;;;;;5076396;28;20024;-85
2022/03/21 02:16:47;;;;;;;52.70;35.35;;;4.60;95.30;;;;;;5058298;28;20028;-82
2022/03/21 02:19:31;;;;;;;52.28;34.10;;;4.70;95.50;;;;;;5075656;28;20055;-82
2022/03/21 02:22:02;;;;;;;56.70;34.60;;;4.60;95.40;;;;;;5058383;28;20075;-82
2022/03/21 02:24:50;;;;;;;50.13;33.80;;;4.60;95.50;;;;;;5058465;28;20035;-82
2022/03/21 02:27:17;;;;;;;52.15;34.88;;;4.60;95.50;;;;;;5061782;28;20444;-82
2022/03/21 02:29:44;;;;;;;51.35;34.50;;;4.60;95.60;;;;;;5095853;28;20145;-83
2022/03/21 02:32:10;;;;;;;54.00;34.20;;;4.50;95.70;;;;;;5078231;28;20141;-82
2022/03/21 02:34:38;;;;;;;51.80;33.95;;;4.50;95.80;;;;;;5061638;28;20032;-83
2022/03/21 02:37:06;;;;;;;51.33;34.15;;;4.50;95.80;;;;;;5078513;28;20024;-83
2022/03/21 02:39:34;;;;;;;55.60;34.85;;;4.50;95.90;;;;;;5061585;28;20043;-83
2022/03/21 02:42:01;;;;;;;49.95;33.33;;;4.50;96.00;;;;;;5077438;28;20059;-82
2022/03/21 02:44:36;;;;;;;53.40;34.05;;;4.40;96.00;;;;;;5061748;28;20024;-83
2022/03/21 02:47:03;;;;;;;51.58;33.80;;;4.40;96.00;;;;;;5078109;28;20031;-82
2022/03/21 02:49:29;;;;;;;54.17;33.58;;;4.40;96.10;;;;;;5095902;28;20447;-83
2022/03/21 02:51:57;;;;;;;54.35;33.50;;;4.40;96.10;;;;;;5077841;28;20032;-83
2022/03/21 02:54:24;;;;;;;52.17;32.38;;;4.40;96.20;;;;;;5077902;28;20032;-83
2022/03/21 02:56:50;;;;;;;52.75;34.55;;;4.40;96.30;;;;;;5061195;28;20024;-83
2022/03/21 02:59:17;;;;;;;48.85;32.63;;;4.40;96.40;;;;;;5095915;28;20089;-83
2022/03/21 03:01:43;;;;;;;55.17;34.15;;;4.30;96.50;;;;;;5060728;28;20033;-83
2022/03/21 03:04:09;;;;;;;52.75;33.72;;;4.30;96.60;;;;;;5077875;28;20032;-82
2022/03/21 03:06:34;;;;;;;50.05;32.67;;;4.30;96.60;;;;;;5061203;28;20039;-83
2022/03/21 03:09:01;;;;;;;50.05;33.47;;;4.30;96.70;;;;;;5060742;28;20024;-83
2022/03/21 03:11:26;;;;;;;55.58;33.10;;;4.30;96.90;;;;;;5077625;28;20020;-82
2022/03/21 03:13:52;;;;;;;54.88;32.92;;;4.30;97.00;;;;;;5076838;28;20024;-83
2022/03/21 03:16:18;;;;;;;49.45;33.08;;;4.30;97.10;;;;;;5077550;28;20365;-83
2022/03/21 03:18:44;;;;;;;47.80;32.05;;;4.30;97.30;;;;;;5077463;28;20350;-82
2022/03/21 03:21:13;;;;;;;48.95;31.08;;;4.20;97.30;;;;;;5077391;28;20032;-82
2022/03/21 03:23:41;;;;;;;50.80;31.35;;;4.20;97.40;;;;;;5060898;28;20028;-83
2022/03/21 03:26:07;;;;;;;46.28;28.50;;;4.20;97.50;;;;;;5077209;28;20449;-83
2022/03/21 03:28:33;;;;;;;45.67;30.02;;;4.20;97.80;;;;;;5077401;28;20024;-82
2022/03/21 03:31:00;;;;;;;45.42;29.02;;;4.20;98.00;;;;;;5077728;28;20078;-82
2022/03/21 03:33:27;;;;;;;43.22;28.20;;;4.20;98.20;;;;;;5060815;28;20035;-82
2022/03/21 03:35:53;;;;;;;43.72;27.48;;;4.20;98.20;;;;;;5060142;28;20691;-82
2022/03/21 03:38:19;;;;;;;43.55;28.52;;;4.30;98.30;;;;;;5095716;28;20472;-83
2022/03/21 03:40:45;;;;;;;44.17;26.92;;;4.30;98.40;;;;;;5111281;28;20046;-87
2022/03/21 03:43:11;;;;;;;45.75;28.90;;;4.30;98.40;;;;;;5116818;28;20067;-84
2022/03/21 03:45:38;;;;;;;47.10;26.98;;;4.20;98.30;;;;;;5099139;28;20510;-83
2022/03/21 03:48:05;;;;;;;45.80;28.85;;;4.20;98.30;;;;;;5115058;28;20008;-85
2022/03/21 03:50:30;;;;;;;43.83;28.38;;;4.20;98.40;;;;;;5113234;28;20016;-84
2022/03/21 03:52:56;;;;;;;44.15;28.23;;;4.20;98.40;;;;;;5077998;28;20123;-83
2022/03/21 03:55:22;;;;;;;43.88;27.38;;;4.20;98.40;;;;;;5063333;28;20036;-82
2022/03/21 03:57:48;;;;;;;46.28;29.73;;;4.20;98.40;;;;;;5076847;28;20031;-83
2022/03/21 04:00:16;;;;;;;45.70;28.88;;;4.20;98.40;;;;;;5057010;28;20058;-82
2022/03/21 04:05:28;;;;;;;43.22;28.98;;;4.10;98.40;;;;;;5077165;28;20043;-83
2022/03/21 04:07:54;;;;;;;42.00;29.02;;;4.10;98.40;;;;;;5094439;28;20119;-83
2022/03/21 04:10:21;;;;;;;47.33;28.77;;;4.10;98.40;;;;;;5059349;28;20035;-82
2022/03/21 04:12:48;;;;;;;47.05;29.38;;;4.10;98.50;;;;;;5057701;28;20056;-82
2022/03/21 04:15:14;;;;;;;47.40;29.88;;;4.10;98.50;;;;;;5041761;28;20028;-83
2022/03/21 04:17:40;;;;;;;46.80;29.50;;;4.00;98.50;;;;;;5090706;28;20033;-82
2022/03/21 04:20:07;;;;;;;43.85;28.88;;;4.00;98.50;;;;;;5056507;28;20036;-82
2022/03/21 04:22:34;;;;;;;46.28;30.13;;;4.00;98.50;;;;;;5072824;28;20024;-82
2022/03/21 04:25:01;;;;;;;44.28;28.10;;;4.00;98.50;;;;;;5071991;28;20071;-82
2022/03/21 04:27:26;;;;;;;42.53;28.38;;;3.90;98.60;;;;;;5056393;28;20029;-81
2022/03/21 04:29:52;;;;;;;48.72;28.92;;;3.90;98.60;;;;;;5072438;28;20024;-83
2022/03/21 04:32:18;;;;;;;47.10;30.08;;;3.90;98.60;;;;;;5072133;28;20039;-82
2022/03/21 04:34:43;;;;;;;47.80;29.92;;;3.90;98.60;;;;;;5072186;28;20028;-82
2022/03/21 04:37:09;;;;;;;47.28;29.05;;;3.90;98.60;;;;;;5055673;28;20029;-82
2022/03/21 04:39:35;;;;;;;45.38;28.45;;;3.80;98.60;;;;;;5075964;28;20055;-82
2022/03/21 04:42:00;;;;;;;44.63;29.38;;;3.80;98.70;;;;;;5075177;28;20056;-82
2022/03/21 04:44:26;;;;;;;46.40;31.13;;;3.80;98.80;;;;;;5039332;28;20056;-82
2022/03/21 04:46:52;;;;;;;48.00;30.95;;;3.80;98.80;;;;;;5055472;28;20058;-83
2022/03/21 04:49:18;;;;;;;43.75;27.63;;;3.70;98.70;;;;;;5055919;28;20039;-82
2022/03/21 04:51:44;;;;;;;44.20;28.02;;;3.70;98.70;;;;;;5055502;28;20029;-82
2022/03/21 04:54:09;;;;;;;47.78;28.70;;;3.70;98.80;;;;;;5038922;28;20461;-82
2022/03/21 04:56:35;;;;;;;42.88;28.00;;;3.70;99.00;;;;;;5055619;28;20108;-83
2022/03/21 04:59:00;;;;;;;37.72;24.42;;;3.70;99.00;;;;;;5072037;28;20024;-82
2022/03/21 05:01:26;;;;;;;34.42;22.30;;;3.70;99.10;;;;;;5055298;28;20028;-82
2022/03/21 05:03:53;;;;;;;30.30;21.92;;;3.60;99.20;;;;;;5071729;28;20078;-83
2022/03/21 05:06:18;;;;;;;34.47;23.23;;;3.50;99.20;;;;;;5038633;28;20017;-82
2022/03/21 05:08:44;;;;;;;32.80;22.85;;;3.50;99.30;;;;;;5088840;28;20115;-83
2022/03/21 05:11:10;;;;;;;34.28;23.98;;;3.50;99.40;;;;;;5071735;28;20430;-82
2022/03/21 05:13:37;;;;;;;39.25;24.30;;;3.50;99.30;;;;;;5088870;28;20036;-82
2022/03/21 05:16:05;;;;;;;43.88;27.35;;;3.50;99.40;;;;;;5088575;28;20385;-82
2022/03/21 05:18:34;;;;;;;42.88;27.45;;;3.50;99.50;;;;;;5039332;28;20039;-82
2022/03/21 05:21:04;;;;;;;42.25;26.95;;;3.40;99.50;;;;;;5072472;28;20530;-83
2022/03/21 05:31:43;;;;;;;43.95;29.05;;;3.40;99.60;;;;;;5057912;28;20511;-83
2022/03/21 05:36:54;;;;;;;47.05;29.08;;;3.30;99.70;;;;;;5057338;28;20404;-83
2022/03/21 05:39:22;;;;;;;45.55;27.90;;;3.30;99.70;;;;;;5055143;28;20060;-82
2022/03/21 05:41:50;;;;;;;44.45;28.30;;;3.30;99.70;;;;;;5088347;28;20064;-83
2022/03/21 05:44:15;;;;;;;47.35;28.05;;;3.30;99.80;;;;;;5055327;28;20082;-82
2022/03/21 05:46:41;;;;;;;41.80;26.73;;;3.30;99.80;;;;;;5054728;28;20041;-82
2022/03/21 05:49:07;;;;;;;41.70;27.55;;;3.30;99.90;;;;;;5038291;28;20025;-82
2022/03/21 05:51:34;;;;;;;46.03;26.92;;;3.30;99.90;;;;;;5038203;28;20044;-83
2022/03/21 05:54:03;;;;;;;43.15;27.98;;;3.20;99.90;;;;;;5072507;28;20024;-83
2022/03/21 05:56:29;;;;;;;43.28;28.00;;;3.20;99.90;;;;;;5087631;28;20561;-83
2022/03/21 05:58:56;;;;;;;45.53;28.13;;;3.20;99.90;;;;;;5072321;28;20051;-84
2022/03/21 06:01:23;;;;;;;46.00;28.60;;;3.20;99.90;;;;;;5054297;28;20033;-82
2022/03/21 06:03:54;;;;;;;42.80;27.73;;;3.20;99.90;;;;;;5038177;28;20033;-83
2022/03/21 06:06:21;;;;;;;45.17;28.95;;;3.20;99.90;;;;;;5072500;28;20036;-82
2022/03/21 06:08:48;;;;;;;46.08;28.13;;;3.20;99.90;;;;;;5037830;28;20116;-83
2022/03/21 06:11:13;;;;;;;44.20;27.92;;;3.20;99.90;;;;;;5072266;28;20391;-82
2022/03/21 06:13:42;;;;;;;43.78;27.00;;;3.20;99.90;;;;;;5038077;28;20115;-82
2022/03/21 06:16:08;;;;;;;45.42;29.55;;;3.20;99.90;;;;;;5077913;28;20042;-82
2022/03/21 06:18:36;;;;;;;47.08;29.23;;;3.20;99.90;;;;;;5076067;28;20028;-83
2022/03/21 06:21:04;;;;;;;45.13;29.25;;;3.20;99.90;;;;;;5054413;28;20028;-83
2022/03/21 06:23:29;;;;;;;45.17;28.05;;;3.20;99.90;;;;;;5082221;28;20028;-84
2022/03/21 06:25:58;;;;;;;42.65;27.42;;;3.20;99.90;;;;;;5073692;28;20054;-85
2022/03/21 06:28:26;;;;;;;41.17;27.25;;;3.20;99.90;;;;;;5073620;28;20039;-83
2022/03/21 06:30:53;;;;;;;45.17;27.75;;;3.20;99.90;;;;;;5092951;28;20020;-83
2022/03/21 06:33:22;;;;;;;44.95;27.98;;;3.20;99.90;;;;;;5074967;28;20029;-83
2022/03/21 06:35:48;;;;;;;42.42;27.25;;;3.20;99.90;;;;;;5074637;28;20031;-86
2022/03/21 06:38:14;;;;;;;41.63;27.88;;;3.20;99.90;;;;;;5074411;28;20020;-83
2022/03/21 06:40:42;;;;;;;42.25;28.27;;;3.20;99.90;;;;;;5073961;28;20028;-83
2022/03/21 06:43:08;;;;;;;42.50;27.90;;;3.20;99.90;;;;;;5073582;28;20135;-84
2022/03/21 06:45:34;;;;;;;43.25;28.20;;;3.20;99.90;;;;;;5074323;28;20036;-85
2022/03/21 06:47:59;;;;;;;44.08;27.50;;;3.30;99.90;;;;;;5074612;28;20028;-84
2022/03/21 06:50:25;;;;;;;43.25;27.08;;;3.30;99.90;;;;;;5061399;28;20032;-83
2022/03/21 06:52:52;;;;;;;43.20;27.83;;;3.30;99.90;;;;;;5061179;28;20024;-83
2022/03/21 06:55:19;;;;;;;46.13;28.90;;;3.30;99.90;;;;;;5060962;28;20030;-83
2022/03/21 06:57:45;;;;;;;45.08;27.77;;;3.30;99.90;;;;;;5096594;28;20104;-83
2022/03/21 07:00:13;;;;;;;43.28;28.73;;;3.40;99.90;;;;;;5078240;28;20473;-83
2022/03/21 07:02:43;;;;;;;44.25;27.45;;;3.40;99.90;;;;;;5081530;28;20082;-82
2022/03/21 07:05:10;;;;;;;44.72;27.30;;;3.40;99.90;;;;;;5082907;28;20032;-83
2022/03/21 07:07:36;;;;;;;42.60;27.75;;;3.50;99.90;;;;;;5081264;28;20028;-83
2022/03/21 07:10:05;;;;;;;38.95;27.58;;;3.50;99.90;;;;;;5077452;28;20388;-84
2022/03/21 07:12:33;;;;;;;38.60;25.75;;;3.60;99.90;;;;;;5078764;28;20063;-82
2022/03/21 07:14:59;;;;;;;41.95;27.83;;;3.60;99.90;;;;;;5079634;28;20021;-82
2022/03/21 07:17:24;;;;;;;43.70;28.40;;;3.60;99.90;;;;;;5082426;28;20043;-83
2022/03/21 07:19:50;;;;;;;40.50;26.98;;;3.70;99.90;;;;;;5078448;28;20036;-82
2022/03/21 07:22:16;;;;;;;37.70;25.08;;;3.80;99.90;;;;;;5081758;28;20054;-83
2022/03/21 07:24:41;;;;;;;38.40;25.55;;;3.80;99.90;;;;;;5098462;28;20028;-82
2022/03/21 07:27:07;;;;;;;39.78;24.75;;;3.90;99.90;;;;;;5079561;28;20020;-81
2022/03/21 07:29:34;;;;;;;38.60;25.83;;;4.00;99.90;;;;;;5096559;28;20084;-81
2022/03/21 07:31:59;;;;;;;41.65;26.67;;;4.10;99.90;;;;;;5094361;28;20043;-80
2022/03/21 07:34:25;;;;;;;45.75;27.77;;;4.20;99.90;;;;;;5092266;28;20032;-81
2022/03/21 07:36:51;;;;;;;41.05;26.02;;;4.30;99.90;;;;;;5087320;28;20058;-82
2022/03/21 07:39:17;;;;;;;38.75;25.95;;;4.40;99.90;;;;;;5078699;28;20430;-82
2022/03/21 07:41:44;;;;;;;40.25;26.05;;;4.50;99.90;;;;;;5060248;28;20040;-81
2022/03/21 07:44:10;;;;;;;41.38;26.90;;;4.60;99.90;;;;;;5060455;28;20112;-82
2022/03/21 07:49:20;;;;;;;47.13;29.30;;;4.80;99.90;;;;;;5078684;28;20073;-83
2022/03/21 07:51:46;;;;;;;49.42;29.75;;;4.90;99.90;;;;;;5094450;28;20039;-81
2022/03/21 07:54:13;;;;;;;44.80;28.00;;;5.10;99.90;;;;;;5060816;28;20077;-82
2022/03/21 07:56:40;;;;;;;41.30;27.75;;;5.10;99.90;;;;;;5060518;28;20047;-82
2022/03/21 07:59:06;;;;;;;39.65;27.80;;;5.20;99.90;;;;;;5077175;28;20027;-82
2022/03/21 08:01:33;;;;;;;39.17;25.95;;;5.30;99.90;;;;;;5076837;28;20039;-82
2022/03/21 08:04:00;;;;;;;42.05;26.58;;;5.40;99.90;;;;;;5077115;28;20372;-82
2022/03/21 08:06:26;;;;;;;46.03;27.27;;;5.50;99.90;;;;;;5076672;28;20099;-83
2022/03/21 08:08:55;;;;;;;42.10;26.90;;;5.60;99.90;;;;;;5077052;28;20460;-83
2022/03/21 08:11:22;;;;;;;40.15;27.10;;;5.70;99.90;;;;;;5076627;28;20039;-83
2022/03/21 08:13:51;;;;;;;36.50;25.30;;;5.80;99.90;;;;;;5076666;28;20030;-82
2022/03/21 08:16:21;;;;;;;42.47;27.10;;;6.00;99.90;;;;;;5076712;28;20030;-82
2022/03/21 08:18:49;;;;;;;39.20;26.02;;;6.00;99.90;;;;;;5094868;28;20024;-82
2022/03/21 08:21:14;;;;;;;41.17;26.58;;;6.10;99.90;;;;;;5059617;28;20400;-82
2022/03/21 08:23:41;;;;;;;39.03;25.30;;;6.20;99.90;;;;;;5075767;28;20032;-81
2022/03/21 08:26:06;;;;;;;39.03;24.40;;;6.30;99.90;;;;;;5094703;28;20032;-82
2022/03/21 08:28:32;;;;;;;42.13;26.52;;;6.40;99.90;;;;;;5076196;28;20430;-82
2022/03/21 08:30:57;;;;;;;37.67;25.55;;;6.50;99.90;;;;;;5060247;28;20036;-82
2022/03/21 08:33:23;;;;;;;44.83;27.80;;;6.60;99.90;;;;;;5042915;28;20035;-82
2022/03/21 08:35:49;;;;;;;41.85;28.02;;;6.70;99.90;;;;;;5076063;28;20043;-82
2022/03/21 08:38:14;;;;;;;46.53;28.95;;;6.80;99.90;;;;;;5059641;28;20114;-82
2022/03/21 08:40:40;;;;;;;37.63;25.00;;;6.90;99.90;;;;;;5059547;28;20032;-82
2022/03/21 08:43:06;;;;;;;38.38;25.80;;;7.00;99.90;;;;;;5075751;28;20020;-83
2022/03/21 08:45:32;;;;;;;39.03;26.90;;;7.10;99.90;;;;;;5075413;28;20044;-83
2022/03/21 08:47:58;;;;;;;41.33;25.00;;;7.20;99.90;;;;;;5075727;28;20016;-82
2022/03/21 08:50:23;;;;;;;40.03;24.50;;;7.40;99.90;;;;;;5058520;28;20035;-82
2022/03/21 08:52:49;;;;;;;42.03;25.55;;;7.40;99.90;;;;;;5074821;28;20065;-81
2022/03/21 08:55:15;;;;;;;39.40;26.02;;;7.60;99.90;;;;;;5066419;28;20098;-82
2022/03/21 08:57:40;;;;;;;41.63;25.15;;;7.70;99.90;;;;;;5055232;28;20028;-82
2022/03/21 09:00:07;;;;;;;35.45;23.55;;;7.80;99.90;;;;;;5088975;28;20537;-83
2022/03/21 09:02:34;;;;;;;38.83;24.02;;;7.90;99.90;;;;;;5055111;28;20047;-86
2022/03/21 09:05:01;;;;;;;39.45;23.95;;;8.00;99.90;;;;;;5089038;28;20033;-84
2022/03/21 09:07:26;;;;;;;35.90;20.40;;;8.10;99.90;;;;;;5088837;28;20082;-83
2022/03/21 09:09:52;;;;;;;41.72;21.27;;;8.20;99.90;;;;;;5055240;28;20033;-83
2022/03/21 09:12:18;;;;;;;37.85;17.73;;;8.40;99.90;;;;;;5054843;28;20516;-82
2022/03/21 09:14:43;;;;;;;31.35;18.67;;;8.50;99.90;;;;;;5073152;28;20058;-82
2022/03/21 09:17:09;;;;;;;28.45;18.27;;;8.60;99.90;;;;;;5055644;28;20043;-82
2022/03/21 09:19:35;;;;;;;27.15;17.67;;;8.70;99.90;;;;;;5071180;28;20051;-83
2022/03/21 09:22:01;;;;;;;30.17;19.67;;;8.80;99.90;;;;;;5055381;28;20033;-82
2022/03/21 09:24:26;;;;;;;30.50;19.48;;;9.00;99.90;;;;;;5088645;28;20082;-82
2022/03/21 09:26:52;;;;;;;28.52;17.83;;;9.10;99.90;;;;;;5055157;28;20033;-83
2022/03/21 09:29:18;;;;;;;27.25;18.23;;;9.20;99.90;;;;;;5088498;28;20020;-83
2022/03/21 09:31:44;;;;;;;31.73;18.55;;;9.40;99.90;;;;;;5071768;28;20060;-83
2022/03/21 09:34:12;;;;;;;30.67;19.02;;;9.50;99.90;;;;;;5055372;28;20067;-83
2022/03/21 09:36:39;;;;;;;31.27;20.25;;;9.60;99.90;;;;;;5071925;28;20537;-84
2022/03/21 09:39:06;;;;;;;30.58;19.55;;;9.80;99.90;;;;;;5056824;28;20144;-83
2022/03/21 09:41:32;;;;;;;35.35;20.27;;;9.90;99.90;;;;;;5060888;28;20044;-84
2022/03/21 09:44:09;;;;;;;28.27;18.65;;;10.10;99.90;;;;;;5073346;28;20036;-83
2022/03/21 09:46:38;;;;;;;28.95;17.88;;;10.20;99.90;;;;;;5072291;28;20048;-83
2022/03/21 09:49:07;;;;;;;24.15;16.10;;;10.40;99.90;;;;;;5088749;28;20520;-82
2022/03/21 09:51:33;;;;;;;27.15;17.52;;;10.50;99.90;;;;;;5088622;28;20029;-83
2022/03/21 09:54:00;;;;;;;27.63;17.25;;;10.60;99.90;;;;;;5071764;28;20032;-83
2022/03/21 09:56:27;;;;;;;27.38;17.52;;;10.80;99.90;;;;;;5071548;28;20089;-82
2022/03/21 09:59:01;;;;;;;26.88;17.58;;;10.90;99.90;;;;;;5072750;28;20021;-84
2022/03/21 10:01:29;;;;;;;26.55;16.70;;;11.00;99.80;;;;;;5072453;28;20086;-83
2022/03/21 10:03:55;;;;;;;25.63;17.38;;;11.20;99.40;;;;;;5054685;28;20024;-83
2022/03/21 10:06:35;;;;;;;28.80;17.50;;;11.30;98.80;;;;;;5054884;28;20056;-83
2022/03/21 10:09:10;;;;;;;27.38;16.40;;;11.50;98.70;;;;;;5071453;28;20024;-83
2022/03/21 10:11:37;;;;;;;27.67;17.63;;;11.60;98.50;;;;;;5054370;28;20158;-84
2022/03/21 10:14:21;;;;;;;28.27;18.05;;;11.70;97.90;;;;;;5054770;28;20125;-83
2022/03/21 10:16:59;;;;;;;25.80;17.10;;;11.90;97.50;;;;;;5054725;28;20475;-83
2022/03/21 10:19:26;;;;;;;26.10;17.70;;;12.00;96.10;;;;;;5072599;28;20031;-83
2022/03/21 10:22:06;;;;;;;26.80;17.35;;;12.10;94.90;;;;;;5087986;28;20421;-83
2022/03/21 10:24:43;;;;;;;29.77;19.52;;;12.30;95.50;;;;;;5090899;28;20024;-83
2022/03/21 10:27:30;;;;;;;30.45;18.90;;;12.40;94.40;;;;;;5092244;28;20142;-83
2022/03/21 10:30:00;;;;;;;25.17;17.95;;;12.60;94.60;;;;;;5062704;28;20036;-81
2022/03/21 10:32:43;;;;;;;28.77;17.73;;;12.70;94.70;;;;;;5058040;28;20404;-82
2022/03/21 10:35:16;;;;;;;25.10;17.27;;;12.90;94.20;;;;;;5076473;28;20029;-80
2022/03/21 10:37:53;;;;;;;27.40;17.42;;;13.00;94.00;;;;;;5075419;28;20024;-81
2022/03/21 10:40:32;;;;;;;28.88;18.52;;;13.20;93.90;;;;;;5091778;28;20024;-81
2022/03/21 10:43:01;;;;;;;24.08;17.08;;;13.30;91.50;;;;;;5076064;28;20040;-81
2022/03/21 10:45:44;;;;;;;27.10;17.88;;;13.50;92.10;;;;;;5057619;28;20120;-84
2022/03/21 10:48:16;;;;;;;25.08;17.65;;;13.60;91.90;;;;;;5058443;28;20091;-86
2022/03/21 10:50:46;;;;;;;27.60;17.30;;;13.70;92.20;;;;;;5096209;28;20044;-83
2022/03/21 10:53:36;;;;;;;28.33;17.75;;;13.90;91.60;;;;;;5096306;28;20048;-83
2022/03/21 10:56:08;;;;;;;24.80;17.23;;;14.00;91.70;;;;;;5096246;28;20025;-82
2022/03/21 10:58:38;;;;;;;22.20;14.75;;;14.20;91.60;;;;;;5095139;28;20033;-84
2022/03/21 11:01:17;;;;;;;23.60;15.85;;;14.30;91.20;;;;;;5110872;28;20039;-83
2022/03/21 11:03:44;;;;;;;22.58;15.13;;;14.40;91.20;;;;;;5079559;28;20054;-85
2022/03/21 11:06:11;;;;;;;27.02;16.58;;;14.60;91.20;;;;;;5096182;28;20017;-86
2022/03/21 11:08:38;;;;;;;28.10;17.20;;;14.70;90.90;;;;;;5095435;28;20078;-85
2022/03/21 11:11:04;;;;;;;25.45;17.02;;;14.80;90.40;;;;;;5096111;28;20034;-83
2022/03/21 11:13:31;;;;;;;27.08;17.10;;;14.90;89.20;;;;;;5078495;28;20036;-85
2022/03/21 11:15:58;;;;;;;27.02;17.58;;;15.10;87.70;;;;;;5066856;28;20037;-84
2022/03/21 11:18:27;;;;;;;24.05;16.77;;;15.20;88.10;;;;;;5076969;28;20017;-85
2022/03/21 11:20:53;;;;;;;22.02;15.38;;;15.30;87.70;;;;;;5075761;28;20028;-83
2022/03/21 11:23:19;;;;;;;24.52;15.32;;;15.50;86.60;;;;;;5057696;28;20025;-86
2022/03/21 11:26:11;;;;;;;24.48;16.15;;;15.60;85.00;;;;;;5090922;28;20043;-86
2022/03/21 11:28:54;;;;;;;20.50;15.63;;;15.70;85.50;;;;;;5075153;28;20020;-83
2022/03/21 11:31:45;;;;;;;21.60;16.25;;;15.90;85.20;;;;;;5075580;28;20437;-82
2022/03/21 11:34:43;;;;;;;24.75;15.90;;;16.00;85.20;;;;;;5057046;28;20035;-82
2022/03/21 11:37:26;;;;;;;27.90;17.10;;;16.10;82.40;;;;;;5090821;28;20061;-86
2022/03/21 11:40:29;;;;;;;29.55;17.50;;;16.30;83.50;;;;;;5090779;28;20050;-82
2022/03/21 11:43:19;;;;;;;22.08;15.50;;;16.40;81.80;;;;;;5056929;28;20037;-83
2022/03/21 11:45:57;;;;;;;22.63;14.93;;;16.50;78.30;;;;;;5056471;28;20048;-83
2022/03/21 11:48:22;;;;;;;25.00;16.33;;;16.60;79.10;;;;;;5040874;28;20279;-83
2022/03/21 11:51:10;;;;;;;24.25;15.40;;;16.80;77.10;;;;;;5055794;28;20031;-82
2022/03/21 11:53:44;;;;;;;23.20;16.25;;;16.90;77.70;;;;;;5090218;28;20025;-83
2022/03/21 11:56:15;;;;;;;25.00;16.25;;;17.00;77.60;;;;;;5074937;28;20020;-82
2022/03/21 11:58:41;;;;;;;26.73;16.08;;;17.10;76.60;;;;;;5056880;28;20024;-83
2022/03/21 12:01:10;;;;;;;25.15;17.42;;;17.20;77.50;;;;;;5090108;28;20071;-90
2022/03/21 12:03:36;;;;;;;26.20;17.83;;;17.40;76.90;;;;;;5090330;28;20111;-83
2022/03/21 12:06:24;;;;;;;24.00;16.13;;;17.40;76.30;;;;;;5096357;28;20028;-81
2022/03/21 12:08:51;;;;;;;21.90;16.13;;;17.50;75.40;;;;;;5061573;28;20087;-82
2022/03/21 12:11:39;;;;;;;25.85;17.75;;;17.60;74.30;;;;;;5041082;28;20024;-82
2022/03/21 12:14:20;;;;;;;23.15;16.67;;;17.70;75.40;;;;;;5056845;28;20327;-83
2022/03/21 12:17:06;;;;;;;24.45;17.48;;;17.80;72.50;;;;;;5074496;28;20046;-83
2022/03/21 12:20:05;;;;;;;25.83;17.48;;;17.90;73.20;;;;;;5045316;28;20389;-83
2022/03/21 12:22:30;;;;;;;28.35;18.58;;;18.00;72.80;;;;;;5074250;28;20040;-84
2022/03/21 12:24:57;;;;;;;25.70;18.80;;;18.10;73.20;;;;;;5056646;28;20043;-83
2022/03/21 12:27:32;;;;;;;23.88;18.08;;;18.20;73.40;;;;;;5074575;28;20447;-83
2022/03/21 12:30:30;;;;;;;33.67;19.17;;;18.30;72.20;;;;;;5056690;28;20023;-83
2022/03/21 12:32:59;;;;;;;23.83;18.30;;;18.40;72.70;;;;;;5056427;28;20029;-83
2022/03/21 12:35:35;;;;;;;24.55;18.40;;;18.40;73.00;;;;;;5073922;28;20052;-83
2022/03/21 12:38:04;;;;;;;27.13;18.13;;;18.60;72.90;;;;;;5074417;28;20107;-83
2022/03/21 12:40:32;;;;;;;25.33;18.05;;;18.60;72.40;;;;;;5056427;28;20036;-83
2022/03/21 12:43:00;;;;;;;30.27;19.65;;;18.80;72.50;;;;;;5074093;28;20029;-82
2022/03/21 12:45:29;;;;;;;25.75;19.10;;;18.80;70.60;;;;;;5055608;28;20151;-82
2022/03/21 12:48:05;;;;;;;25.17;18.23;;;18.90;68.10;;;;;;5073595;28;20063;-83
2022/03/21 12:50:32;;;;;;;26.33;18.52;;;18.90;69.00;;;;;;5074163;28;20033;-82
2022/03/21 12:53:02;;;;;;;30.33;19.80;;;18.90;67.60;;;;;;5039714;28;20077;-83
2022/03/21 12:55:28;;;;;;;25.25;17.85;;;19.00;66.30;;;;;;5055986;28;20020;-82
2022/03/21 12:57:55;;;;;;;21.55;16.63;;;19.00;67.00;;;;;;5073379;28;20507;-83
2022/03/21 13:00:22;;;;;;;21.83;18.08;;;19.10;67.50;;;;;;5055948;28;20016;-83